Saint Augustine, FL

6:20 AM EDT on May 22, 2015 (GMT -0400)
Ormond Beach Municipal | | Change Station
CLOSE
Current Station
Airport
Location: Ormond Beach,
Elevation: 30 ft
Nearby Weather Stations

Elev 30 ft 29.30 °N, 81.11 °W | Updated 11 hours ago

Clear
Clear
72 °F
Feels Like 72 °F
N
5
Wind Variable Wind from NNW
Gusts mph

Today
High -- | Low -- °F
--% Chance of Precip.
Yesterday
High -- | Low -- °F
Precip. -- in
6:28 AM 8:15 PM
Waxing Crescent, 20% visible
Pressure 29.90 in
Visibility 10.0 miles
Clouds Few 6000 ft
Dew Point 65 °F
Humidity 79%
Rainfall 0.00 in
Snow Depth Not available.
UV 1 out of 12
Pollen 5.00 out of 12
Air Quality Not available.
Flu Activity Sporadic
METAR KOMN 212250Z 28005KT 10SM FEW060 32/19 A2990 RMK LAST

More Conditions Fewer Conditions

Pressure 29.90 in
Visibility 10.0 miles
Clouds Few 6000 ft
Dew Point 65 °F
Humidity 79%
Rainfall 0.00 in
Snow Depth Not available.
UV 1 out of 12
Pollen 5.00 out of 12
Air Quality Not available.
Flu Activity Sporadic
METAR KOMN 212250Z 28005KT 10SM FEW060 32/19 A2990 RMK LAST

More Conditions Fewer Conditions

10-Day Weather Forecast

Almanac

Astronomy

May. 22, 2015 Rise Set
Actual Time
Civil Twilight
Nautical Twilight
Astronomical Twilight
Moon
Length of Visible Light
Length of Day
Tomorrow will be .
, % of the Moon is Illuminated

Today's Extremes

State Highs State Lows

Community

WunderPhotos

Upload Photos

1,823,197 photos uploaded!

WunderBlogs® & News

Nearby

Air Quality

  Air Quality AQ Index Pollutant
Not available.

Snow Depth

Station Depth Elevation

Earthquake Activity

City Distance Mag. Time & Date
Minimum magnitude displayed is 2.5.

Coastal Water Temperatures

Place Temperature

Stations

Nearby Weather Stations

Station Location Temp. Windchill Dew Point Humidity Wind Precip. Elev Updated Type